Almeida Garret — CSKB — position and weather

sailwx.info

Track history (hours):
 
Tides and Currents Weather Stations Pressure Air Temp Water Temp Dewpoint Dewpoint Depression Visibility Wind Speed Wind Dir Waves Ship Positions

Almeida Garret

Last reported at 2017-Nov-17 21:15 UTC. Time now 2017-Nov-19 03:00 UTC.
Position N 38°39' W 009°05'.

Length 49 m.

Type: Ship (hazmat cat A). MMSI: 263701340.

Date/timePositionNaut miles runAvg speedWind from/ knotsBaromVisibWave heightAir tempDewpointWater temp
2017-Nov-17 21:15N 38°39' W 009°05'2 8.1
2017-Nov-17 21:00N 38°40' W 009°07'1 1.1
2017-Nov-17 20:31N 38°40' W 009°08'3 5.2
2017-Nov-17 20:00N 38°39' W 009°05'2 4.9
2017-Nov-17 19:31N 38°40' W 009°07'1 2.4
2017-Nov-17 19:01N 38°40' W 009°06'3 6.1
2017-Nov-17 18:30N 38°42' W 009°08'4 8.4
2017-Nov-17 18:01N 38°39' W 009°05'3 6.9
2017-Nov-17 17:30N 38°42' W 009°08'1 2.8
2017-Nov-17 17:01N 38°40' W 009°07'0 0.5
2017-Nov-17 16:30N 38°40' W 009°07'2 4.4
2017-Nov-17 16:00N 38°39' W 009°05'0 0.0
2017-Nov-17 15:30N 38°39' W 009°05'3 6.9
2017-Nov-17 15:00N 38°42' W 009°08'3 5.3
2017-Nov-17 14:30N 38°39' W 009°06'3 5.7
2017-Nov-17 14:00N 38°42' W 009°08'3 5.4
2017-Nov-17 13:30N 38°39' W 009°06'1 1.8
2017-Nov-17 13:00N 38°39' W 009°05'0 0.0
2017-Nov-17 12:30N 38°39' W 009°05'0 0.0
2017-Nov-17 12:00N 38°39' W 009°05'0 0.0
2017-Nov-17 11:30N 38°39' W 009°05'0 0.0
2017-Nov-17 11:00N 38°39' W 009°05'3 6.6
2017-Nov-17 10:30N 38°41' W 009°08'3 5.8
2017-Nov-17 10:00N 38°39' W 009°05'1 1.2
2017-Nov-17 09:30N 38°39' W 009°05'4 7.6
2017-Nov-17 09:01N 38°42' W 009°08'2 4.8
2017-Nov-17 08:31N 38°40' W 009°07'1 1.6
2017-Nov-17 08:01N 38°39' W 009°06'3 6.8
2017-Nov-17 07:30N 38°42' W 009°08'4 8.3
2017-Nov-17 07:00N 38°39' W 009°05'4 7.7
2017-Nov-17 06:31N 38°42' W 009°08'4 7.1
2017-Nov-17 06:00N 38°39' W 009°05'4 7.5
2017-Nov-17 05:31N 38°42' W 009°08'4 7.9
2017-Nov-17 05:01N 38°39' W 009°05'0 0.0
2017-Nov-17 02:23N 38°39' W 009°05'410.9
2017-Nov-17 02:00N 38°42' W 009°08'4 8.3
2017-Nov-17 01:30N 38°39' W 009°05'4 8.3
2017-Nov-17 01:00N 38°42' W 009°08'4 8.3
2017-Nov-17 00:30N 38°39' W 009°05'4 8.3
2017-Nov-17 00:00N 38°42' W 009°08'4 8.3
2017-Nov-16 23:30N 38°39' W 009°05'3 6.7
2017-Nov-16 23:00N 38°41' W 009°08'3 5.2
2017-Nov-16 22:31N 38°39' W 009°06'3 5.3
2017-Nov-16 22:00N 38°41' W 009°08'2 4.9
2017-Nov-16 21:31N 38°40' W 009°06'1 2.1
2017-Nov-16 21:01N 38°39' W 009°05'0 0.0
2017-Nov-16 20:31N 38°39' W 009°05'4 8.3
2017-Nov-16 20:00N 38°42' W 009°08'4 8.3
2017-Nov-16 19:30N 38°39' W 009°05'4 8.0
2017-Nov-16 19:00N 38°42' W 009°08'2 4.5
2017-Nov-16 18:31N 38°40' W 009°07'1 2.1
2017-Nov-16 18:00N 38°40' W 009°06'3 6.6
2017-Nov-16 17:30N 38°42' W 009°08'4 8.2
2017-Nov-16 17:00N 38°39' W 009°05'0 0.0
2017-Nov-16 09:49N 38°39' W 009°05'0 0.3
2017-Nov-16 09:30N 38°39' W 009°05'3 6.5
2017-Nov-16 09:01N 38°41' W 009°08'3 6.7
2017-Nov-16 08:30N 38°39' W 009°05'4 8.3
2017-Nov-16 08:00N 38°42' W 009°08'4 8.4
2017-Nov-16 07:30N 38°39' W 009°05'3 6.9
2017-Nov-16 07:00N 38°42' W 009°08'3 6.7
2017-Nov-16 06:31N 38°39' W 009°05'0 0.0
2017-Nov-15 21:25N 38°39' W 009°05'4 9.5
2017-Nov-15 21:01N 38°42' W 009°08'4 8.3
2017-Nov-15 20:30N 38°39' W 009°05'2 3.8
2017-Nov-15 20:00N 38°40' W 009°07'1 2.1
2017-Nov-15 19:30N 38°41' W 009°07'1 2.3
2017-Nov-15 19:01N 38°40' W 009°07'0 1.0
2017-Nov-15 18:30N 38°40' W 009°06'3 6.0
2017-Nov-15 18:01N 38°42' W 009°08'4 8.4
2017-Nov-15 17:31N 38°39' W 009°05'4 8.1
2017-Nov-15 17:00N 38°42' W 009°08'4 7.5
2017-Nov-15 16:30N 38°39' W 009°06'3 5.4
2017-Nov-15 16:01N 38°41' W 009°08'3 6.4
2017-Nov-15 15:30N 38°39' W 009°05'0 0.1
2017-Nov-15 12:56N 38°39' W 009°05'3 6.4
2017-Nov-15 12:31N 38°42' W 009°07'1 1.1
2017-Nov-15 12:01N 38°42' W 009°06'2 4.7
2017-Nov-15 11:30N 38°40' W 009°06'1 2.2
2017-Nov-15 11:00N 38°39' W 009°05'0 0.0
2017-Nov-15 10:30N 38°39' W 009°05'3 6.5
2017-Nov-15 10:00N 38°41' W 009°08'2 4.8
2017-Nov-15 09:31N 38°39' W 009°06'1 2.8
2017-Nov-15 09:00N 38°40' W 009°07'1 1.5
2017-Nov-15 08:31N 38°40' W 009°07'3 5.5
2017-Nov-15 08:00N 38°42' W 009°08'4 8.3
2017-Nov-15 07:30N 38°39' W 009°05'3 6.9
2017-Nov-15 07:01N 38°42' W 009°08'3 6.8
2017-Nov-15 06:30N 38°39' W 009°05'0 0.0
2017-Nov-14 21:31N 38°39' W 009°05'0 0.0
2017-Nov-14 21:30N 38°39' W 009°05'4 8.2
2017-Nov-14 21:00N 38°42' W 009°08'4 8.3
2017-Nov-14 20:30N 38°39' W 009°05'1 2.3
2017-Nov-14 20:01N 38°40' W 009°06'2 3.1
2017-Nov-14 19:30N 38°41' W 009°07'2 3.2
2017-Nov-14 19:01N 38°40' W 009°06'0 0.5
2017-Nov-14 18:30N 38°40' W 009°06'3 5.8
2017-Nov-14 18:00N 38°42' W 009°08'4 8.3
2017-Nov-14 17:30N 38°39' W 009°05'4 8.3
2017-Nov-14 17:00N 38°42' W 009°08'4 7.1
2017-Nov-14 16:30N 38°39' W 009°06'2 4.5
2017-Nov-14 16:00N 38°41' W 009°08'3 6.0
2017-Nov-14 15:30N 38°39' W 009°05'0 0.0
2017-Nov-14 11:32N 38°39' W 009°05'0 0.1
2017-Nov-14 11:30N 38°39' W 009°05'4 7.5
2017-Nov-14 11:00N 38°42' W 009°08'4 7.4
2017-Nov-14 10:30N 38°39' W 009°05'0 0.1
2017-Nov-14 10:00N 38°39' W 009°05'2 4.4
2017-Nov-14 09:30N 38°40' W 009°07'2 3.3
2017-Nov-14 09:00N 38°39' W 009°05'4 7.6
2017-Nov-14 08:30N 38°42' W 009°08'4 8.3
2017-Nov-14 08:00N 38°39' W 009°05'3 6.6
2017-Nov-14 07:30N 38°41' W 009°08'3 6.6
2017-Nov-14 07:00N 38°39' W 009°05'  
2017-Nov-10 20:24N 38°39' W 009°05'0 0.0
2017-Nov-10 20:00N 38°39' W 009°05'4 8.1
2017-Nov-10 19:30N 38°42' W 009°08'4 8.4
2017-Nov-10 19:01N 38°39' W 009°05'4 7.6
2017-Nov-10 18:31N 38°42' W 009°08'2 4.6
2017-Nov-10 18:01N 38°40' W 009°07'1 1.5
2017-Nov-10 17:31N 38°40' W 009°06'3 6.2
2017-Nov-10 17:00N 38°42' W 009°08'4 8.3
2017-Nov-10 16:30N 38°39' W 009°05'3 6.9
2017-Nov-10 16:00N 38°42' W 009°08'3 6.1
2017-Nov-10 15:31N 38°39' W 009°05'1 0.9
2017-Nov-10 14:56N 38°39' W 009°05'0 0.0
2017-Nov-10 11:34N 38°39' W 009°05'0 1.1
2017-Nov-10 11:30N 38°39' W 009°05'0 0.0
2017-Nov-10 11:00N 38°39' W 009°05'0 0.0
2017-Nov-10 10:30N 38°39' W 009°05'3 6.9
2017-Nov-10 10:01N 38°41' W 009°08'3 6.0
2017-Nov-10 09:31N 38°39' W 009°05'2 3.1
2017-Nov-10 09:01N 38°40' W 009°07'1 2.3
2017-Nov-10 08:30N 38°39' W 009°06'3 6.9
2017-Nov-10 08:01N 38°42' W 009°08'4 8.4
2017-Nov-10 07:31N 38°39' W 009°05'4 8.4
2017-Nov-10 07:01N 38°42' W 009°08'4 8.3
2017-Nov-10 06:30N 38°39' W 009°05'4 7.3
2017-Nov-10 06:01N 38°42' W 009°08'4 7.4
2017-Nov-10 05:31N 38°39' W 009°05'0 0.0
2017-Nov-09 23:53N 38°39' W 009°05'411.0
2017-Nov-09 23:30N 38°42' W 009°08'4 8.3
2017-Nov-09 23:00N 38°39' W 009°05'4 7.0
2017-Nov-09 22:30N 38°42' W 009°08'3 7.0
2017-Nov-09 22:00N 38°39' W 009°05'3 6.9
2017-Nov-09 21:30N 38°42' W 009°08'3 6.8
2017-Nov-09 21:00N 38°39' W 009°05'0 0.0
2017-Nov-09 20:30N 38°39' W 009°05'4 8.2
2017-Nov-09 20:00N 38°42' W 009°08'4 8.4
2017-Nov-09 19:30N 38°39' W 009°05'4 8.4
2017-Nov-09 19:00N 38°42' W 009°08'4 8.3
2017-Nov-09 18:30N 38°39' W 009°05'4 7.9
2017-Nov-09 18:01N 38°42' W 009°08'2 4.6
2017-Nov-09 17:31N 38°40' W 009°07'0 0.4
2017-Nov-09 17:01N 38°40' W 009°07'2 0.3
2017-Nov-09 09:59N 38°39' W 009°05'0 0.2
2017-Nov-09 09:30N 38°39' W 009°05'3 6.3
2017-Nov-09 09:00N 38°41' W 009°08'3 6.4
2017-Nov-09 08:31N 38°39' W 009°05'4 8.4
2017-Nov-09 08:01N 38°42' W 009°08'4 8.3
2017-Nov-09 07:30N 38°39' W 009°05'3 6.8
2017-Nov-09 07:00N 38°41' W 009°08'3 6.7
2017-Nov-09 06:30N 38°39' W 009°05'0 0.0
2017-Nov-08 20:54N 38°39' W 009°05'410.4
2017-Nov-08 20:30N 38°42' W 009°08'4 8.3
2017-Nov-08 20:01N 38°39' W 009°05'4 8.2
2017-Nov-08 19:30N 38°42' W 009°08'4 7.5
2017-Nov-08 19:01N 38°39' W 009°06'2 3.4
2017-Nov-08 18:31N 38°40' W 009°07'2 3.0
2017-Nov-08 18:00N 38°42' W 009°08'3 6.9
2017-Nov-08 17:30N 38°39' W 009°05'0 0.0
2017-Nov-08 17:00N 38°39' W 009°05'4 8.3
2017-Nov-08 16:30N 38°42' W 009°08'4 8.3
2017-Nov-08 16:00N 38°39' W 009°05'3 6.6
2017-Nov-08 15:30N 38°41' W 009°08'3 5.1
2017-Nov-08 15:00N 38°39' W 009°06'3 5.6
2017-Nov-08 14:30N 38°42' W 009°08'3 5.9
2017-Nov-08 14:00N 38°39' W 009°06'3 5.5
2017-Nov-08 13:31N 38°41' W 009°08'3 5.5
2017-Nov-08 13:00N 38°39' W 009°06'3 6.1
2017-Nov-08 12:30N 38°42' W 009°08'3 6.2
2017-Nov-08 12:01N 38°39' W 009°06'3 6.0
2017-Nov-08 11:31N 38°42' W 009°08'3 6.0
2017-Nov-08 11:01N 38°39' W 009°06'1 1.1
2017-Nov-08 10:29N 38°39' W 009°05'0 0.8
2017-Nov-08 10:00N 38°39' W 009°05'4 7.8
2017-Nov-08 09:30N 38°42' W 009°08'4 8.2
2017-Nov-08 09:00N 38°39' W 009°05'4 8.3
2017-Nov-08 08:30N 38°42' W 009°08'3 5.2
2017-Nov-08 08:00N 38°40' W 009°07'1 1.7
2017-Nov-08 07:30N 38°39' W 009°06'1 1.7
2017-Nov-08 07:00N 38°39' W 009°05'0 0.2
2017-Nov-08 06:30N 38°39' W 009°05'  
Track history (hours):
 
Tides and Currents Weather Stations Pressure Air Temp Water Temp Dewpoint Dewpoint Depression Visibility Wind Speed Wind Dir Waves Ship Positions

Almeida Garret

Last reported at 2017-Nov-17 21:15 UTC. Time now 2017-Nov-19 03:00 UTC.
Position N 38°39' W 009°05'.

Length 49 m.

Type: Ship (hazmat cat A). MMSI: 263701340.

Date/timePositionNaut miles runAvg speedWind from/ knotsBaromVisibWave heightAir tempDewpointWater temp
2017-Nov-17 21:15N 38°39' W 009°05'2 8.1
2017-Nov-17 21:00N 38°40' W 009°07'1 1.1
2017-Nov-17 20:31N 38°40' W 009°08'3 5.2
2017-Nov-17 20:00N 38°39' W 009°05'2 4.9
2017-Nov-17 19:31N 38°40' W 009°07'1 2.4
2017-Nov-17 19:01N 38°40' W 009°06'3 6.1
2017-Nov-17 18:30N 38°42' W 009°08'4 8.4
2017-Nov-17 18:01N 38°39' W 009°05'3 6.9
2017-Nov-17 17:30N 38°42' W 009°08'1 2.8
2017-Nov-17 17:01N 38°40' W 009°07'0 0.5
2017-Nov-17 16:30N 38°40' W 009°07'2 4.4
2017-Nov-17 16:00N 38°39' W 009°05'0 0.0
2017-Nov-17 15:30N 38°39' W 009°05'3 6.9
2017-Nov-17 15:00N 38°42' W 009°08'3 5.3
2017-Nov-17 14:30N 38°39' W 009°06'3 5.7
2017-Nov-17 14:00N 38°42' W 009°08'3 5.4
2017-Nov-17 13:30N 38°39' W 009°06'1 1.8
2017-Nov-17 13:00N 38°39' W 009°05'0 0.0
2017-Nov-17 12:30N 38°39' W 009°05'0 0.0
2017-Nov-17 12:00N 38°39' W 009°05'0 0.0
2017-Nov-17 11:30N 38°39' W 009°05'0 0.0
2017-Nov-17 11:00N 38°39' W 009°05'3 6.6
2017-Nov-17 10:30N 38°41' W 009°08'3 5.8
2017-Nov-17 10:00N 38°39' W 009°05'1 1.2
2017-Nov-17 09:30N 38°39' W 009°05'4 7.6
2017-Nov-17 09:01N 38°42' W 009°08'2 4.8
2017-Nov-17 08:31N 38°40' W 009°07'1 1.6
2017-Nov-17 08:01N 38°39' W 009°06'3 6.8
2017-Nov-17 07:30N 38°42' W 009°08'4 8.3
2017-Nov-17 07:00N 38°39' W 009°05'4 7.7
2017-Nov-17 06:31N 38°42' W 009°08'4 7.1
2017-Nov-17 06:00N 38°39' W 009°05'4 7.5
2017-Nov-17 05:31N 38°42' W 009°08'4 7.9
2017-Nov-17 05:01N 38°39' W 009°05'0 0.0
2017-Nov-17 02:23N 38°39' W 009°05'410.9
2017-Nov-17 02:00N 38°42' W 009°08'4 8.3
2017-Nov-17 01:30N 38°39' W 009°05'4 8.3
2017-Nov-17 01:00N 38°42' W 009°08'4 8.3
2017-Nov-17 00:30N 38°39' W 009°05'4 8.3
2017-Nov-17 00:00N 38°42' W 009°08'4 8.3
2017-Nov-16 23:30N 38°39' W 009°05'3 6.7
2017-Nov-16 23:00N 38°41' W 009°08'3 5.2
2017-Nov-16 22:31N 38°39' W 009°06'3 5.3
2017-Nov-16 22:00N 38°41' W 009°08'2 4.9
2017-Nov-16 21:31N 38°40' W 009°06'1 2.1
2017-Nov-16 21:01N 38°39' W 009°05'0 0.0
2017-Nov-16 20:31N 38°39' W 009°05'4 8.3
2017-Nov-16 20:00N 38°42' W 009°08'4 8.3
2017-Nov-16 19:30N 38°39' W 009°05'4 8.0
2017-Nov-16 19:00N 38°42' W 009°08'2 4.5
2017-Nov-16 18:31N 38°40' W 009°07'1 2.1
2017-Nov-16 18:00N 38°40' W 009°06'3 6.6
2017-Nov-16 17:30N 38°42' W 009°08'4 8.2
2017-Nov-16 17:00N 38°39' W 009°05'0 0.0
2017-Nov-16 09:49N 38°39' W 009°05'0 0.3
2017-Nov-16 09:30N 38°39' W 009°05'3 6.5
2017-Nov-16 09:01N 38°41' W 009°08'3 6.7
2017-Nov-16 08:30N 38°39' W 009°05'4 8.3
2017-Nov-16 08:00N 38°42' W 009°08'4 8.4
2017-Nov-16 07:30N 38°39' W 009°05'3 6.9
2017-Nov-16 07:00N 38°42' W 009°08'3 6.7
2017-Nov-16 06:31N 38°39' W 009°05'0 0.0
2017-Nov-15 21:25N 38°39' W 009°05'4 9.5
2017-Nov-15 21:01N 38°42' W 009°08'4 8.3
2017-Nov-15 20:30N 38°39' W 009°05'2 3.8
2017-Nov-15 20:00N 38°40' W 009°07'1 2.1
2017-Nov-15 19:30N 38°41' W 009°07'1 2.3
2017-Nov-15 19:01N 38°40' W 009°07'0 1.0
2017-Nov-15 18:30N 38°40' W 009°06'3 6.0
2017-Nov-15 18:01N 38°42' W 009°08'4 8.4
2017-Nov-15 17:31N 38°39' W 009°05'4 8.1
2017-Nov-15 17:00N 38°42' W 009°08'4 7.5
2017-Nov-15 16:30N 38°39' W 009°06'3 5.4
2017-Nov-15 16:01N 38°41' W 009°08'3 6.4
2017-Nov-15 15:30N 38°39' W 009°05'0 0.1
2017-Nov-15 12:56N 38°39' W 009°05'3 6.4
2017-Nov-15 12:31N 38°42' W 009°07'1 1.1
2017-Nov-15 12:01N 38°42' W 009°06'2 4.7
2017-Nov-15 11:30N 38°40' W 009°06'1 2.2
2017-Nov-15 11:00N 38°39' W 009°05'0 0.0
2017-Nov-15 10:30N 38°39' W 009°05'3 6.5
2017-Nov-15 10:00N 38°41' W 009°08'2 4.8
2017-Nov-15 09:31N 38°39' W 009°06'1 2.8
2017-Nov-15 09:00N 38°40' W 009°07'1 1.5
2017-Nov-15 08:31N 38°40' W 009°07'3 5.5
2017-Nov-15 08:00N 38°42' W 009°08'4 8.3
2017-Nov-15 07:30N 38°39' W 009°05'3 6.9
2017-Nov-15 07:01N 38°42' W 009°08'3 6.8
2017-Nov-15 06:30N 38°39' W 009°05'0 0.0
2017-Nov-14 21:31N 38°39' W 009°05'0 0.0
2017-Nov-14 21:30N 38°39' W 009°05'4 8.2
2017-Nov-14 21:00N 38°42' W 009°08'4 8.3
2017-Nov-14 20:30N 38°39' W 009°05'1 2.3
2017-Nov-14 20:01N 38°40' W 009°06'2 3.1
2017-Nov-14 19:30N 38°41' W 009°07'2 3.2
2017-Nov-14 19:01N 38°40' W 009°06'0 0.5
2017-Nov-14 18:30N 38°40' W 009°06'3 5.8
2017-Nov-14 18:00N 38°42' W 009°08'4 8.3
2017-Nov-14 17:30N 38°39' W 009°05'4 8.3
2017-Nov-14 17:00N 38°42' W 009°08'4 7.1
2017-Nov-14 16:30N 38°39' W 009°06'2 4.5
2017-Nov-14 16:00N 38°41' W 009°08'3 6.0
2017-Nov-14 15:30N 38°39' W 009°05'0 0.0
2017-Nov-14 11:32N 38°39' W 009°05'0 0.1
2017-Nov-14 11:30N 38°39' W 009°05'4 7.5
2017-Nov-14 11:00N 38°42' W 009°08'4 7.4
2017-Nov-14 10:30N 38°39' W 009°05'0 0.1
2017-Nov-14 10:00N 38°39' W 009°05'2 4.4
2017-Nov-14 09:30N 38°40' W 009°07'2 3.3
2017-Nov-14 09:00N 38°39' W 009°05'4 7.6
2017-Nov-14 08:30N 38°42' W 009°08'4 8.3
2017-Nov-14 08:00N 38°39' W 009°05'3 6.6
2017-Nov-14 07:30N 38°41' W 009°08'3 6.6
2017-Nov-14 07:00N 38°39' W 009°05'  
2017-Nov-10 20:24N 38°39' W 009°05'0 0.0
2017-Nov-10 20:00N 38°39' W 009°05'4 8.1
2017-Nov-10 19:30N 38°42' W 009°08'4 8.4
2017-Nov-10 19:01N 38°39' W 009°05'4 7.6
2017-Nov-10 18:31N 38°42' W 009°08'2 4.6
2017-Nov-10 18:01N 38°40' W 009°07'1 1.5
2017-Nov-10 17:31N 38°40' W 009°06'3 6.2
2017-Nov-10 17:00N 38°42' W 009°08'4 8.3
2017-Nov-10 16:30N 38°39' W 009°05'3 6.9
2017-Nov-10 16:00N 38°42' W 009°08'3 6.1
2017-Nov-10 15:31N 38°39' W 009°05'1 0.9
2017-Nov-10 14:56N 38°39' W 009°05'0 0.0
2017-Nov-10 11:34N 38°39' W 009°05'0 1.1
2017-Nov-10 11:30N 38°39' W 009°05'0 0.0
2017-Nov-10 11:00N 38°39' W 009°05'0 0.0
2017-Nov-10 10:30N 38°39' W 009°05'3 6.9
2017-Nov-10 10:01N 38°41' W 009°08'3 6.0
2017-Nov-10 09:31N 38°39' W 009°05'2 3.1
2017-Nov-10 09:01N 38°40' W 009°07'1 2.3
2017-Nov-10 08:30N 38°39' W 009°06'3 6.9
2017-Nov-10 08:01N 38°42' W 009°08'4 8.4
2017-Nov-10 07:31N 38°39' W 009°05'4 8.4
2017-Nov-10 07:01N 38°42' W 009°08'4 8.3
2017-Nov-10 06:30N 38°39' W 009°05'4 7.3
2017-Nov-10 06:01N 38°42' W 009°08'4 7.4
2017-Nov-10 05:31N 38°39' W 009°05'0 0.0
2017-Nov-09 23:53N 38°39' W 009°05'411.0
2017-Nov-09 23:30N 38°42' W 009°08'4 8.3
2017-Nov-09 23:00N 38°39' W 009°05'4 7.0
2017-Nov-09 22:30N 38°42' W 009°08'3 7.0
2017-Nov-09 22:00N 38°39' W 009°05'3 6.9
2017-Nov-09 21:30N 38°42' W 009°08'3 6.8
2017-Nov-09 21:00N 38°39' W 009°05'0 0.0
2017-Nov-09 20:30N 38°39' W 009°05'4 8.2
2017-Nov-09 20:00N 38°42' W 009°08'4 8.4
2017-Nov-09 19:30N 38°39' W 009°05'4 8.4
2017-Nov-09 19:00N 38°42' W 009°08'4 8.3
2017-Nov-09 18:30N 38°39' W 009°05'4 7.9
2017-Nov-09 18:01N 38°42' W 009°08'2 4.6
2017-Nov-09 17:31N 38°40' W 009°07'0 0.4
2017-Nov-09 17:01N 38°40' W 009°07'2 0.3
2017-Nov-09 09:59N 38°39' W 009°05'0 0.2
2017-Nov-09 09:30N 38°39' W 009°05'3 6.3
2017-Nov-09 09:00N 38°41' W 009°08'3 6.4
2017-Nov-09 08:31N 38°39' W 009°05'4 8.4
2017-Nov-09 08:01N 38°42' W 009°08'4 8.3
2017-Nov-09 07:30N 38°39' W 009°05'3 6.8
2017-Nov-09 07:00N 38°41' W 009°08'3 6.7
2017-Nov-09 06:30N 38°39' W 009°05'0 0.0
2017-Nov-08 20:54N 38°39' W 009°05'410.4
2017-Nov-08 20:30N 38°42' W 009°08'4 8.3
2017-Nov-08 20:01N 38°39' W 009°05'4 8.2
2017-Nov-08 19:30N 38°42' W 009°08'4 7.5
2017-Nov-08 19:01N 38°39' W 009°06'2 3.4
2017-Nov-08 18:31N 38°40' W 009°07'2 3.0
2017-Nov-08 18:00N 38°42' W 009°08'3 6.9
2017-Nov-08 17:30N 38°39' W 009°05'0 0.0
2017-Nov-08 17:00N 38°39' W 009°05'4 8.3
2017-Nov-08 16:30N 38°42' W 009°08'4 8.3
2017-Nov-08 16:00N 38°39' W 009°05'3 6.6
2017-Nov-08 15:30N 38°41' W 009°08'3 5.1
2017-Nov-08 15:00N 38°39' W 009°06'3 5.6
2017-Nov-08 14:30N 38°42' W 009°08'3 5.9
2017-Nov-08 14:00N 38°39' W 009°06'3 5.5
2017-Nov-08 13:31N 38°41' W 009°08'3 5.5
2017-Nov-08 13:00N 38°39' W 009°06'3 6.1
2017-Nov-08 12:30N 38°42' W 009°08'3 6.2
2017-Nov-08 12:01N 38°39' W 009°06'3 6.0
2017-Nov-08 11:31N 38°42' W 009°08'3 6.0
2017-Nov-08 11:01N 38°39' W 009°06'1 1.1
2017-Nov-08 10:29N 38°39' W 009°05'0 0.8
2017-Nov-08 10:00N 38°39' W 009°05'4 7.8
2017-Nov-08 09:30N 38°42' W 009°08'4 8.2
2017-Nov-08 09:00N 38°39' W 009°05'4 8.3
2017-Nov-08 08:30N 38°42' W 009°08'3 5.2
2017-Nov-08 08:00N 38°40' W 009°07'1 1.7
2017-Nov-08 07:30N 38°39' W 009°06'1 1.7
2017-Nov-08 07:00N 38°39' W 009°05'0 0.2
2017-Nov-08 06:30N 38°39' W 009°05'  

Dump ship's entire track history